x

West Orca Bay - 8nm Nw Of Hinchinbrook Is , Ak (46060) Wave Buoy

1:50am - Thu 27th Apr 2017 All times are AKDT. -8 hours from GMT.

  • Sig Wave height 1.6ft
  • Swell Direction
  • Peak Period 8s
  • Average Period 4s
  • Wind
    9mph
  • Sea Temp 44°f
  • Air Temp 43°f
  • Sea Pressure 1002mb
  • West Orca Bay - 8nm Nw Of Hinchinbrook  Is , Ak
  • West Orca Bay - 8nm Nw Of Hinchinbrook  Is , Ak

More Historic Weather Station data

Upgrade to MSW Pro to gain access to the past 30 days of data for over 8000 Wavebouys and Weather Stations around the globe.

Join Pro

Comparision Forecast

View Surf forecast
   
Thu 04/27 1:50am 1.6ft 8s 4s 9
mph
1002mb 44f 43f
12:50am 1.3ft 8s 5s 9
mph
1001.7mb 44f 43f
Wed 04/26 11:50pm 1.3ft 8s 5s 7 9 mph 1001.5mb 44f 44f
10:50pm 1.3ft 8s 6s 7
mph
1001.2mb 44f 44f
9:50pm 1.3ft 7s 6s 2 4 mph 1001.1mb 44f 44f
8:50pm 1.3ft 8s 6s 2 4 mph 1000.8mb 44f 44f
7:50pm 1.3ft 8s 7s 4
mph
1000.5mb 44f 44f
6:50pm 1.3ft 8s 6s 4 7 mph 1000.2mb 44f 44f
5:50pm 1.3ft 9s 7s 7
mph
1000mb 44f 44f
3:50pm 1.3ft 8s 6s 4 7 mph 999.9mb 44f 44f
2:50pm 1.3ft 8s 6s 4
mph
999.9mb 44f 43f
1:50pm 1.3ft 8s 5s 7
mph
999.9mb 44f 43f
12:50pm 1.3ft 6s 5s 2 4 mph 1000.1mb 44f 43f
11:50am 1.3ft 9s 5s 4
mph
1000.1mb 43f 42f
10:50am 1.3ft 5s 5s 4
mph
1000.5mb 42f 42f
9:50am 1ft 6s 6s 7 9 mph 1000.4mb 42f 42f
8:50am 1ft 8s 6s 7
mph
1000.6mb 42f 42f
7:50am 1ft 9s 6s 7
mph
1001mb 42f 41f
6:50am 1.3ft 6s 7s 4
mph
1001.2mb 42f 42f
5:50am 1.3ft 10s 6s  -  mph 1001.4mb 42f 42f
4:50am 1ft 10s 6s 2
mph
1001.4mb 43f 42f
3:50am 1ft 15s 6s 2
mph
1001.7mb 43f 42f
2:50am 1.3ft 9s 6s 2 4 mph 1002.1mb 43f 43f
1:50am 1.3ft 13s 6s 7
mph
1002.4mb 43f 43f
12:50am 1.3ft 15s 6s 7 9 mph 1002.7mb 43f 43f
Tue 04/25 11:50pm 1.3ft 9s 6s 7 9 mph 1003.1mb 43f 43f
10:50pm 1.3ft 9s 6s 7 9 mph 1003.3mb 43f 43f
9:50pm 1.3ft 8s 6s 7 9 mph 1003.6mb 43f 43f
8:50pm 1.3ft 5s 6s 9 11 mph 1003.7mb 43f 43f
7:50pm 1.3ft 8s 5s 9
mph
1004mb 43f 43f
6:50pm 1.3ft 10s 6s 9
mph
1004mb 42f 43f
5:50pm 1.3ft 10s 5s 9 11 mph 1004.2mb 42f 42f
3:50pm 1.3ft 9s 5s 7 9 mph 1004.9mb 42f 42f
2:50pm 1.3ft 10s 5s 9
mph
1005mb 42f 42f
1:50pm 1.3ft 9s 5s 13 18 mph 1005.2mb 42f 42f
12:50pm 1.6ft 9s 5s 9 11 mph 1005.3mb 43f 42f
11:50am 1.3ft 10s 5s 9
mph
1005.4mb 43f 42f
10:50am 1.6ft 10s 4s 9 11 mph 1005.3mb 43f 42f
9:50am 1.6ft 10s 4s 13 16 mph 1005.2mb 43f 42f
8:50am 1.6ft 10s 4s 13 16 mph 1005.2mb 43f 42f
7:50am 1.6ft 10s 4s 16 18 mph 1005.1mb 43f 42f
6:50am 2ft 10s 4s 13 16 mph 1004.9mb 43f 42f
5:50am 2ft 10s 4s 16 18 mph 1004.7mb 43f 42f
4:50am 2ft 10s 4s 16 18 mph 1004.5mb 43f 42f
3:50am 2ft 10s 4s 16 18 mph 1004.5mb 43f 42f
2:50am 2ft 10s  -  16 18 mph 1004.4mb 43f 42f
1:50am 1.6ft 10s 5s 11 13 mph 1004.2mb 43f 43f
12:50am 1.6ft 10s 5s 9 11 mph 1004.1mb 43f 42f
Mon 04/24 11:50pm 1.6ft 10s 4s 13 16 mph 1003.9mb 43f 43f
10:50pm 1.6ft 10s 4s 11 13 mph 1004.1mb 43f 43f
9:50pm 1.6ft 10s 5s 11 13 mph 1004mb 43f 43f
8:50pm 1.6ft 10s 5s 9 11 mph 1004.2mb 43f 43f
7:50pm 1.6ft 10s 5s 11 13 mph 1004.5mb 43f 43f
6:50pm 2ft 11s 5s 11 13 mph 1005.1mb 42f 43f
5:50pm 2.5ft 3s 4s 13 16 mph 1005.3mb 42f 43f
3:50pm 2.5ft 11s 4s 16 18 mph 1005.9mb 44f 44f
2:50pm 2ft 11s 4s 16 20 mph 1005.8mb 44f 45f
1:50pm 2ft 11s 5s 11 13 mph 1005.7mb 45f 46f
12:50pm 1.6ft 11s 7s 9 11 mph 1005.6mb 45f 46f
11:50am 1.6ft 11s 8s 9 11 mph 1005.1mb 45f 46f
10:50am 1.6ft 10s 8s 4 7 mph 1005mb 45f 46f
9:50am 2ft 10s 8s 7
mph
1004.9mb 45f 45f
8:50am 2ft 10s 9s 7 9 mph 1005mb 45f 45f
7:50am 1.6ft 11s 8s 7 9 mph 1005.3mb 45f 44f
6:50am 2ft 11s 9s 4 7 mph 1005.5mb 45f 44f
5:50am 1.6ft 11s 8s 2
mph
1005.3mb 45f 45f
3:50am 2ft 11s 9s  -  2 mph 1005.3mb 45f 44f
2:50am 2ft 11s 8s  -  mph 1005.3mb 45f 45f
1:50am 2.5ft 11s 9s 7
mph
1005.4mb 45f 45f
12:50am 2.5ft 11s 8s  -  2 mph 1005.7mb 45f 45f
Sun 04/23 11:50pm 2.5ft 11s 8s 2
mph
1005.8mb 45f 45f
10:50pm 2.5ft 11s 9s 2 4 mph 1005.8mb 45f 45f
9:50pm 2.5ft 11s 9s 4
mph
1005.9mb 45f 45f
8:50pm 2.5ft 12s 8s 2 4 mph 1006.1mb 45f 45f
7:50pm 2.5ft 11s 9s 4
mph
1006.4mb 45f 46f
6:50pm 2.5ft 11s 9s 7
mph
1006.4mb 46f 46f
5:50pm 2.5ft 11s 9s 7
mph
1006.7mb 45f 45f
4:50pm 2.5ft 13s 9s 7 9 mph 1006.8mb 46f 45f
3:50pm 2.5ft 12s 9s 7 9 mph 1007mb 45f 45f
2:50pm 2.5ft 11s 8s 7 9 mph 1007.2mb 45f 44f
1:50pm 3ft 11s 8s 7
mph
1007.2mb 45f 45f
12:50pm 3ft 11s 8s 4 7 mph 1007.3mb 45f 44f
11:50am 2.5ft 11s 8s 4
mph
1007.4mb 45f 44f